Genoa, IL (60135)

1:48 AM CDT on August 31, 2015 (GMT -0500)
Genoa Road | | Change Station
CLOSE
Current Station
Personal Weather Station
Location: Genoa, IL
Elevation: 814 ft
Nearby Weather Stations

Elev 814 ft 42.11 °N, 88.72 °W | Updated 11 minutes ago

Mostly Cloudy
Mostly Cloudy
59.5 °F
Feels Like 59.5 °F
N
0.0
Wind Variable Wind from SW
Gusts 0.0 mph

Today
High -- | Low -- °F
--% Chance of Precip.
Yesterday
High -- | Low -- °F
Precip. -- in
6:18 AM 7:30 PM
Waning Gibbous, 97% visible
Pressure 30.05 in
Visibility 4.0 miles
Clouds Scattered Clouds 200 ft
Dew Point 59 °F
Humidity 97%
Rainfall 0.00 in
Snow Depth Not available.
UV 0 out of 12
Pollen 10.40 out of 12
Air Quality Not available.
Flu Activity Not available.
METAR KDKB 310615Z AUTO 00000KT 4SM BR SCT002 17/16 A3005 RMK AO2 T01670164
Pressure 30.05 in
Visibility 4.0 miles
Clouds Scattered Clouds 200 ft
Dew Point 59 °F
Humidity 97%
Rainfall 0.00 in
Snow Depth Not available.
UV 0 out of 12
Pollen 10.40 out of 12
Air Quality Not available.
Flu Activity Not available.
METAR KDKB 310615Z AUTO 00000KT 4SM BR SCT002 17/16 A3005 RMK AO2 T01670164

10-Day Weather Forecast

×

Almanac

Astronomy

Aug. 31, 2015 Rise Set
Actual Time
Civil Twilight
Nautical Twilight
Astronomical Twilight
Moon
Length of Visible Light
Length of Day
Tomorrow will be .
, % of the Moon is Illuminated

Today's Extremes

State Highs State Lows

Community

WunderPhotos

Upload Photos

1,851,217 photos uploaded!

WunderBlogs® & News

Nearby

Air Quality

  Air Quality AQ Index Pollutant
Not available.

Snow Depth

Station Depth Elevation

Earthquake Activity

City Distance Mag. Time & Date
Minimum magnitude displayed is 2.5.

Coastal Water Temperatures

Place Temperature

Stations

Nearby Weather Stations

Station Location Temp. Windchill Dew Point Humidity Wind Precip. Elev Updated Type